Sea Thames — V2BV1 — position and weather

sailwx.info

Track history (hours):
 
Tides and Currents Weather Stations Pressure Air Temp Water Temp Dewpoint Dewpoint Depression Visibility Wind Speed Wind Dir Waves Ship Positions

Sea Thames

Last reported at 2015-Aug-27 06:19 UTC. Time now 2015-Aug-30 01:36 UTC.
Position N 50°34' E 000°17'.

Length 87 m; draft 3.9 m.

Type: Ship. MMSI: 304933000.

Date/timePositionNaut miles runAvg speedWind from/ knotsBaromVisibWave heightAir tempDewpointWater temp
2015-Aug-27 06:19N 50°34' E 000°17'5 5.4
2015-Aug-27 05:27N 50°36' E 000°24'6 6.4
2015-Aug-27 04:33N 50°37' E 000°32'7 7.3
2015-Aug-27 03:34N 50°41' E 000°42'8 8.1
2015-Aug-27 02:33N 50°45' E 000°53'19 7.9
2015-Aug-27 00:10N 50°56' E 001°19'4 6.8
2015-Aug-26 23:33N 50°58' E 001°23'6 6.0
2015-Aug-26 22:34N 51°03' E 001°30'9 4.4
2015-Aug-26 20:34N 51°04' E 001°44'6 5.7
2015-Aug-26 19:33N 51°03' E 001°53'7 6.5
2015-Aug-26 18:33N 51°03' E 002°03'8 7.7
2015-Aug-26 17:33N 51°04' E 002°15'3 2.5
2015-Aug-26 16:26N 51°03' E 002°20'3 0.9
2015-Aug-26 13:30N 51°02' E 002°16'0 0.0
2015-Aug-25 20:32N 51°02' E 002°16'3 3.4
2015-Aug-25 19:31N 51°04' E 002°21'1510.8
2015-Aug-25 18:07N 51°03' E 001°57'610.9
2015-Aug-25 17:33N 51°01' E 001°48'1110.8
2015-Aug-25 16:32N 50°55' E 001°32'  
2015-Aug-22 00:10N 44°35' W 003°21'11 6.6
2015-Aug-21 22:29N 44°25' W 003°15'63 3.4
2015-Aug-21 04:12N 43°26' W 002°43'41 7.0
2015-Aug-20 22:24N 44°04' W 003°04'  
2015-Aug-18 13:15N 49°58' W 002°50'7 8.6
2015-Aug-18 12:30N 50°00' W 002°40'118 8.3
2015-Aug-17 22:11N 50°35' E 000°17'4 6.4
2015-Aug-17 21:33N 50°36' E 000°23'7 7.4
2015-Aug-17 20:33N 50°38' E 000°34'9 9.0
2015-Aug-17 19:33N 50°43' E 000°45'11 9.7
2015-Aug-17 18:23N 50°50' E 001°00'8 9.3
2015-Aug-17 17:31N 50°55' E 001°10'8 8.6
2015-Aug-17 16:33N 51°01' E 001°20'7 7.4
2015-Aug-17 15:33N 51°05' E 001°29'6 6.1
2015-Aug-17 14:33N 51°09' E 001°37'6 6.0
2015-Aug-17 13:33N 51°13' E 001°44'7 7.3
2015-Aug-17 12:33N 51°19' E 001°50'9 9.0
2015-Aug-17 11:33N 51°27' E 001°58'1110.2
2015-Aug-17 10:27N 51°35' E 002°10'  
Track history (hours):
 
Tides and Currents Weather Stations Pressure Air Temp Water Temp Dewpoint Dewpoint Depression Visibility Wind Speed Wind Dir Waves Ship Positions

Sea Thames

Last reported at 2015-Aug-27 06:19 UTC. Time now 2015-Aug-30 01:36 UTC.
Position N 50°34' E 000°17'.

Length 87 m; draft 3.9 m.

Type: Ship. MMSI: 304933000.

Date/timePositionNaut miles runAvg speedWind from/ knotsBaromVisibWave heightAir tempDewpointWater temp
2015-Aug-27 06:19N 50°34' E 000°17'5 5.4
2015-Aug-27 05:27N 50°36' E 000°24'6 6.4
2015-Aug-27 04:33N 50°37' E 000°32'7 7.3
2015-Aug-27 03:34N 50°41' E 000°42'8 8.1
2015-Aug-27 02:33N 50°45' E 000°53'19 7.9
2015-Aug-27 00:10N 50°56' E 001°19'4 6.8
2015-Aug-26 23:33N 50°58' E 001°23'6 6.0
2015-Aug-26 22:34N 51°03' E 001°30'9 4.4
2015-Aug-26 20:34N 51°04' E 001°44'6 5.7
2015-Aug-26 19:33N 51°03' E 001°53'7 6.5
2015-Aug-26 18:33N 51°03' E 002°03'8 7.7
2015-Aug-26 17:33N 51°04' E 002°15'3 2.5
2015-Aug-26 16:26N 51°03' E 002°20'3 0.9
2015-Aug-26 13:30N 51°02' E 002°16'0 0.0
2015-Aug-25 20:32N 51°02' E 002°16'3 3.4
2015-Aug-25 19:31N 51°04' E 002°21'1510.8
2015-Aug-25 18:07N 51°03' E 001°57'610.9
2015-Aug-25 17:33N 51°01' E 001°48'1110.8
2015-Aug-25 16:32N 50°55' E 001°32'  
2015-Aug-22 00:10N 44°35' W 003°21'11 6.6
2015-Aug-21 22:29N 44°25' W 003°15'63 3.4
2015-Aug-21 04:12N 43°26' W 002°43'41 7.0
2015-Aug-20 22:24N 44°04' W 003°04'  
2015-Aug-18 13:15N 49°58' W 002°50'7 8.6
2015-Aug-18 12:30N 50°00' W 002°40'118 8.3
2015-Aug-17 22:11N 50°35' E 000°17'4 6.4
2015-Aug-17 21:33N 50°36' E 000°23'7 7.4
2015-Aug-17 20:33N 50°38' E 000°34'9 9.0
2015-Aug-17 19:33N 50°43' E 000°45'11 9.7
2015-Aug-17 18:23N 50°50' E 001°00'8 9.3
2015-Aug-17 17:31N 50°55' E 001°10'8 8.6
2015-Aug-17 16:33N 51°01' E 001°20'7 7.4
2015-Aug-17 15:33N 51°05' E 001°29'6 6.1
2015-Aug-17 14:33N 51°09' E 001°37'6 6.0
2015-Aug-17 13:33N 51°13' E 001°44'7 7.3
2015-Aug-17 12:33N 51°19' E 001°50'9 9.0
2015-Aug-17 11:33N 51°27' E 001°58'1110.2
2015-Aug-17 10:27N 51°35' E 002°10'  

Dump ship's entire track history